Time;durP1;ratioP1;P1;durP2;ratioP2;P2;SDS_P1;SDS_P2;PMS_P1;PMS_P2;Temp;Humidity;BMP_temperature;BMP_pressure;BME280_temperature;BME280_humidity;BME280_pressure;Samples;Min_cycle;Max_cycle;Signal;HPM_P1;HPM_P2
2023/10/16 00:02:12;;;;;;;2.20;1.23;;;;;;;5.78;nan;100075.38;4933848;28;20212;-77
2023/10/16 00:04:45;;;;;;;1.60;1.40;;;;;;;5.64;nan;100077.59;4937028;28;20248;-79
2023/10/16 00:07:15;;;;;;;2.80;1.40;;;;;;;5.55;nan;100071.81;4936243;28;20590;-78
2023/10/16 00:09:41;;;;;;;1.60;1.50;;;;;;;5.48;nan;100067.75;4935251;28;20767;-80
2023/10/16 00:12:07;;;;;;;1.90;1.50;;;;;;;5.45;nan;100069.59;4935872;28;20213;-77
2023/10/16 00:14:36;;;;;;;2.13;1.23;;;;;;;5.47;nan;100073.84;4933848;28;20610;-80
2023/10/16 00:17:08;;;;;;;1.42;1.33;;;;;;;5.52;nan;100077.13;4933423;28;20208;-77
2023/10/16 00:19:37;;;;;;;3.05;1.80;;;;;;;5.55;nan;100071.81;4934065;28;20334;-77
2023/10/16 00:22:13;;;;;;;4.20;1.40;;;;;;;5.57;nan;100076.13;4932858;28;20197;-77
2023/10/16 00:24:45;;;;;;;10.57;2.45;;;;;;;5.59;nan;100071.69;4936388;28;20319;-76
2023/10/16 00:27:14;;;;;;;1.98;1.77;;;;;;;5.60;nan;100069.03;4935520;28;20574;-77
2023/10/16 00:29:43;;;;;;;2.97;1.67;;;;;;;5.62;nan;100066.41;4916398;29;20237;-77
2023/10/16 00:32:09;;;;;;;1.95;1.73;;;;;;;5.67;nan;100056.63;4909254;28;20459;-80
2023/10/16 00:34:35;;;;;;;1.73;1.42;;;;;;;5.66;nan;100057.56;4932819;28;20223;-77
2023/10/16 00:37:04;;;;;;;2.67;1.93;;;;;;;5.65;nan;100063.69;4931935;28;20224;-78
2023/10/16 00:39:30;;;;;;;4.28;2.00;;;;;;;5.63;nan;100053.28;4913490;28;20564;-80
2023/10/16 00:42:00;;;;;;;2.17;1.63;;;;;;;5.57;nan;100055.28;4931789;28;20201;-77
2023/10/16 00:44:35;;;;;;;1.90;1.40;;;;;;;5.52;nan;100051.06;4934705;28;20970;-77
2023/10/16 00:47:04;;;;;;;2.03;1.40;;;;;;;5.51;nan;100048.53;4909610;29;20200;-77
2023/10/16 00:49:34;;;;;;;2.53;2.33;;;;;;;5.45;nan;100038.31;4932381;28;20228;-77
2023/10/16 00:52:03;;;;;;;3.30;1.48;;;;;;;5.42;nan;100039.28;4932769;28;20225;-80
2023/10/16 00:54:33;;;;;;;1.45;1.00;;;;;;;5.43;nan;100035.78;4931069;28;20399;-80
2023/10/16 00:56:59;;;;;;;2.55;1.25;;;;;;;5.48;nan;100035.59;4936622;28;20208;-78
2023/10/16 00:59:26;;;;;;;3.90;1.70;;;;;;;5.43;nan;100040.16;4929383;28;20220;-79
2023/10/16 01:02:05;;;;;;;2.45;1.83;;;;;;;5.33;nan;100032.66;4931946;28;20367;-81
2023/10/16 01:04:31;;;;;;;1.45;1.20;;;;;;;5.26;nan;100035.50;4932004;28;20228;-77
2023/10/16 01:06:57;;;;;;;2.03;1.52;;;;;;;5.23;nan;100033.03;4930736;28;20447;-78
2023/10/16 01:09:22;;;;;;;2.50;2.10;;;;;;;5.20;nan;100035.72;4907948;29;20197;-78
2023/10/16 01:11:49;;;;;;;2.17;1.70;;;;;;;5.10;nan;100022.16;4908295;28;20403;-80
2023/10/16 01:14:14;;;;;;;2.53;1.67;;;;;;;5.08;nan;100022.25;4924639;28;20705;-81
2023/10/16 01:16:39;;;;;;;2.27;1.70;;;;;;;5.13;nan;100027.31;4931467;28;20204;-79
2023/10/16 01:19:09;;;;;;;1.80;1.60;;;;;;;5.16;nan;100021.97;4912856;29;20205;-79
2023/10/16 01:21:34;;;;;;;2.13;1.85;;;;;;;5.19;nan;100021.88;4911983;29;20782;-80
2023/10/16 01:24:16;;;;;;;2.30;2.00;;;;;;;5.19;nan;100026.22;4931050;28;20260;-80
2023/10/16 01:26:42;;;;;;;1.83;1.63;;;;;;;5.12;nan;100016.94;4930556;28;20201;-77
2023/10/16 01:29:09;;;;;;;1.73;1.40;;;;;;;5.06;nan;100016.22;4925725;28;20488;-80
2023/10/16 01:31:36;;;;;;;2.28;2.08;;;;;;;5.03;nan;100015.50;4909540;29;20696;-78
2023/10/16 01:34:03;;;;;;;2.10;1.90;;;;;;;5.01;nan;100012.94;4924256;28;20220;-78
2023/10/16 01:36:30;;;;;;;2.28;2.05;;;;;;;4.99;nan;100004.31;4925992;28;20509;-81
2023/10/16 01:38:59;;;;;;;2.20;1.90;;;;;;;5.00;nan;100006.03;4928073;28;20205;-79
2023/10/16 01:41:25;;;;;;;2.45;2.13;;;;;;;4.95;nan;100007.09;4928025;29;20197;-79
2023/10/16 01:43:52;;;;;;;2.22;1.33;;;;;;;4.88;nan;100009.03;4924750;28;20300;-79
2023/10/16 01:46:18;;;;;;;2.40;2.00;;;;;;;4.84;nan;100015.25;4925460;28;20245;-78
2023/10/16 01:48:45;;;;;;;2.60;1.60;;;;;;;4.82;nan;100017.06;4927670;28;20288;-78
2023/10/16 01:51:19;;;;;;;3.78;2.20;;;;;;;4.84;nan;100016.13;4930851;28;20283;-81
2023/10/16 01:53:51;;;;;;;3.45;1.92;;;;;;;4.83;nan;100016.16;4925327;28;20207;-80
2023/10/16 01:56:17;;;;;;;4.60;2.33;;;;;;;4.79;nan;100001.56;4925640;28;20205;-80
2023/10/16 01:58:44;;;;;;;3.03;1.85;;;;;;;4.79;nan;99997.19;4892821;28;20193;-80
2023/10/16 02:01:11;;;;;;;4.20;2.30;;;;;;;4.77;nan;99985.13;4900710;29;20205;-78
2023/10/16 02:03:38;;;;;;;2.47;2.17;;;;;;;4.73;nan;99986.16;4922558;29;20197;-81
2023/10/16 02:06:04;;;;;;;6.95;2.40;;;;;;;4.70;nan;99987.09;4919205;28;20442;-78
2023/10/16 02:08:30;;;;;;;9.95;2.35;;;;;;;4.65;nan;99984.66;4939779;23;21992;-77
2023/10/16 02:10:57;;;;;;;3.47;2.03;;;;;;;4.65;nan;99974.25;4901103;28;20263;-77
2023/10/16 02:13:23;;;;;;;2.65;1.88;;;;;;;4.66;nan;99970.72;4939369;28;20205;-77
2023/10/16 02:15:48;;;;;;;3.53;2.23;;;;;;;4.69;nan;99967.16;4936573;28;20195;-77
2023/10/16 02:18:18;;;;;;;3.40;2.20;;;;;;;4.67;nan;99968.97;4926578;28;20845;-77
2023/10/16 02:20:49;;;;;;;3.08;1.90;;;;;;;4.65;nan;99970.78;4917523;28;20280;-77
2023/10/16 02:23:15;;;;;;;3.05;1.90;;;;;;;4.64;nan;99967.34;4935834;28;20205;-77
2023/10/16 02:25:41;;;;;;;4.07;2.38;;;;;;;4.69;nan;99961.13;4926007;28;20739;-78
2023/10/16 02:28:08;;;;;;;4.43;2.30;;;;;;;4.70;nan;99965.41;4934734;28;20218;-77
2023/10/16 02:30:36;;;;;;;4.40;2.63;;;;;;;4.70;nan;99966.28;4929871;28;20823;-77
2023/10/16 02:33:18;;;;;;;3.08;2.28;;;;;;;4.70;nan;99966.28;4925055;28;20247;-77
2023/10/16 02:35:48;;;;;;;2.38;2.17;;;;;;;4.72;nan;99964.47;4931117;28;20820;-77
2023/10/16 02:38:23;;;;;;;3.08;2.35;;;;;;;4.74;nan;99956.63;4925233;28;20505;-77
2023/10/16 02:40:50;;;;;;;2.75;2.10;;;;;;;4.75;nan;99958.31;4934943;28;20319;-77
2023/10/16 02:43:18;;;;;;;2.03;1.70;;;;;;;4.73;nan;99950.56;4934339;28;20295;-77
2023/10/16 02:45:51;;;;;;;1.90;1.80;;;;;;;4.68;nan;99951.63;4938742;28;20351;-77
2023/10/16 02:48:17;;;;;;;2.33;1.85;;;;;;;4.58;nan;99954.53;4937327;28;20256;-77
2023/10/16 02:50:44;;;;;;;9.30;2.37;;;;;;;4.57;nan;99947.63;4939497;28;20612;-77
2023/10/16 02:53:11;;;;;;;2.55;2.30;;;;;;;4.57;nan;99945.03;4936072;28;20986;-77
2023/10/16 02:55:40;;;;;;;3.58;2.00;;;;;;;4.57;nan;99945.03;4938049;28;20197;-78
2023/10/16 02:58:11;;;;;;;3.35;2.22;;;;;;;4.59;nan;99952.75;4938586;28;20216;-77
2023/10/16 03:00:38;;;;;;;3.10;2.10;;;;;;;4.58;nan;99944.13;4940301;28;20855;-77
2023/10/16 03:03:07;;;;;;;2.85;2.00;;;;;;;4.60;nan;99939.72;4934864;28;20215;-77
2023/10/16 03:05:32;;;;;;;4.18;1.95;;;;;;;4.63;nan;99943.97;4942643;28;20695;-77
2023/10/16 03:07:58;;;;;;;2.90;2.30;;;;;;;4.62;nan;99945.72;4928620;28;20466;-77
2023/10/16 03:10:26;;;;;;;6.13;3.00;;;;;;;4.64;nan;99943.06;4920233;28;20223;-77
2023/10/16 03:12:52;;;;;;;2.45;2.13;;;;;;;4.65;nan;99947.38;4942318;28;20205;-77
2023/10/16 03:15:20;;;;;;;2.63;1.98;;;;;;;4.65;nan;99943.00;4940889;28;20582;-77
2023/10/16 03:17:50;;;;;;;3.22;2.40;;;;;;;4.65;nan;99944.78;4939343;28;20215;-77
2023/10/16 03:20:37;;;;;;;5.13;3.05;;;;;;;4.62;nan;99950.94;4942837;28;20197;-78
2023/10/16 03:23:06;;;;;;;3.95;2.45;;;;;;;4.60;nan;99944.94;4944185;28;20295;-78
2023/10/16 03:28:07;;;;;;;4.75;3.00;;;;;;;4.54;nan;99946.91;4940767;28;20400;-75
2023/10/16 03:30:33;;;;;;;2.87;2.60;;;;;;;4.53;nan;99953.81;4937777;28;20209;-75
2023/10/16 03:32:59;;;;;;;2.53;2.33;;;;;;;4.54;nan;99949.50;4940439;28;20844;-75
2023/10/16 03:35:29;;;;;;;2.33;2.13;;;;;;;4.56;nan;99942.47;4941976;28;21033;-75
2023/10/16 03:37:58;;;;;;;6.50;2.95;;;;;;;4.57;nan;99939.81;4941907;28;20502;-75
2023/10/16 03:40:25;;;;;;;2.35;2.13;;;;;;;4.57;nan;99939.81;4941640;28;20723;-75
2023/10/16 03:42:55;;;;;;;3.08;2.40;;;;;;;4.55;nan;99940.78;4940961;28;20442;-77
2023/10/16 03:45:21;;;;;;;2.88;2.67;;;;;;;4.58;nan;99945.88;4938683;28;20193;-78
2023/10/16 03:48:03;;;;;;;2.72;2.53;;;;;;;4.60;nan;99933.66;4935290;28;20692;-78
2023/10/16 03:50:38;;;;;;;3.00;2.58;;;;;;;4.62;nan;99940.53;4936068;28;20205;-78
2023/10/16 03:53:07;;;;;;;2.28;2.08;;;;;;;4.63;nan;99941.38;4940498;28;20284;-75
2023/10/16 03:55:40;;;;;;;3.60;2.33;;;;;;;4.61;nan;99930.16;4942624;28;20204;-75
2023/10/16 03:58:06;;;;;;;3.15;2.00;;;;;;;4.61;nan;99928.41;4945570;28;20492;-75
2023/10/16 04:00:50;;;;;;;3.53;2.90;;;;;;;4.62;nan;99927.50;4941055;28;20438;-75
2023/10/16 04:03:17;;;;;;;4.38;2.25;;;;;;;4.63;nan;99934.41;4939612;28;20428;-75
2023/10/16 04:05:45;;;;;;;4.80;2.22;;;;;;;4.63;nan;99924.00;4944027;28;20188;-75
2023/10/16 04:08:18;;;;;;;4.25;2.30;;;;;;;4.65;nan;99932.63;4942797;28;20327;-75
2023/10/16 04:10:47;;;;;;;4.55;3.20;;;;;;;4.65;nan;99926.56;4940884;28;20296;-75
2023/10/16 04:13:17;;;;;;;2.65;2.45;;;;;;;4.64;nan;99930.91;4939576;28;20202;-75
2023/10/16 04:21:08;;;;;;;2.85;2.50;;;;;;;4.59;nan;99922.41;4941752;28;20189;-75
2023/10/16 04:24:30;;;;;;;3.40;2.42;;;;;;;4.61;nan;99920.59;4936874;28;20208;-75
2023/10/16 04:34:24;;;;;;;4.72;2.80;;;;;;;4.51;nan;99916.63;4938454;28;20771;-75
2023/10/16 04:37:49;;;;;;;6.65;2.28;;;;;;;4.53;nan;99920.00;4939712;28;20292;-75
2023/10/16 04:41:31;;;;;;;2.75;2.55;;;;;;;4.53;nan;99917.41;4930652;28;20325;-75
2023/10/16 04:43:03;;;;;;;2.85;2.58;;;;;;;4.52;nan;99914.88;4934636;28;20303;-75
2023/10/16 04:45:39;;;;;;;2.78;2.05;;;;;;;4.50;nan;99911.47;4936153;28;20205;-76
2023/10/16 04:50:37;;;;;;;4.32;3.15;;;;;;;4.51;nan;99910.56;4940381;28;20206;-75
2023/10/16 05:14:22;;;;;;;2.33;2.13;;;;;;;4.57;nan;99903.41;4931364;28;20283;-75
2023/10/16 05:17:07;;;;;;;2.20;1.90;;;;;;;4.57;nan;99906.00;4934543;28;20205;-75
2023/10/16 06:14:10;;;;;;;4.57;4.20;;;;;;;4.65;nan;99904.00;4939964;28;20236;-75
2023/10/16 06:16:38;;;;;;;7.80;2.85;;;;;;;4.68;nan;99902.19;4935257;28;20205;-78
2023/10/16 06:19:07;;;;;;;3.08;2.72;;;;;;;4.72;nan;99901.16;4939970;28;20201;-78
2023/10/16 06:21:34;;;;;;;7.38;3.08;;;;;;;4.75;nan;99908.88;4937149;28;20311;-78
2023/10/16 06:23:59;;;;;;;2.20;2.10;;;;;;;4.78;nan;99904.41;4935553;28;20268;-78
2023/10/16 06:26:27;;;;;;;3.20;2.90;;;;;;;4.79;nan;99910.47;4942070;28;20200;-75
2023/10/16 06:28:53;;;;;;;2.70;2.28;;;;;;;4.81;nan;99906.91;4939187;28;20951;-74
2023/10/16 06:31:24;;;;;;;2.80;2.43;;;;;;;4.81;nan;99906.06;4935017;28;20213;-75
2023/10/16 06:33:56;;;;;;;3.47;3.03;;;;;;;4.85;nan;99908.50;4934341;28;20492;-75
2023/10/16 06:36:23;;;;;;;4.63;3.00;;;;;;;4.91;nan;99910.03;4934068;28;20300;-75
2023/10/16 06:38:51;;;;;;;5.00;2.55;;;;;;;4.89;nan;99911.84;4933103;28;20207;-75
2023/10/16 06:41:18;;;;;;;3.35;2.65;;;;;;;4.87;nan;99914.50;4939590;28;20814;-75
2023/10/16 06:43:47;;;;;;;5.30;3.40;;;;;;;4.85;nan;99918.06;4935549;28;20292;-75
2023/10/16 06:46:22;;;;;;;5.78;2.92;;;;;;;4.80;nan;99912.16;4939060;28;20411;-75
2023/10/16 06:48:49;;;;;;;3.25;2.25;;;;;;;4.80;nan;99914.75;4928525;28;20212;-75
2023/10/16 06:51:15;;;;;;;9.15;2.83;;;;;;;4.80;nan;99913.00;4936250;28;20421;-75
2023/10/16 06:53:42;;;;;;;3.58;3.28;;;;;;;4.84;nan;99916.38;4936340;28;20733;-75
2023/10/16 06:56:08;;;;;;;5.00;3.38;;;;;;;4.90;nan;99916.13;4932536;28;20692;-75
2023/10/16 06:58:36;;;;;;;3.40;3.10;;;;;;;4.92;nan;99910.91;4933709;28;20244;-75
2023/10/16 07:01:03;;;;;;;2.83;2.55;;;;;;;4.87;nan;99911.88;4936391;28;20235;-75
2023/10/16 07:03:28;;;;;;;3.85;2.78;;;;;;;4.84;nan;99913.75;4938195;28;20201;-75
2023/10/16 07:05:54;;;;;;;8.67;4.20;;;;;;;4.84;nan;99924.19;4934555;28;20915;-75
2023/10/16 07:08:20;;;;;;;4.13;3.30;;;;;;;4.86;nan;99924.94;4933169;28;20955;-75
2023/10/16 07:10:49;;;;;;;3.50;3.20;;;;;;;4.89;nan;99922.25;4938145;28;20290;-75
2023/10/16 07:13:28;;;;;;;3.90;3.58;;;;;;;4.94;nan;99929.88;4936958;28;20684;-75
2023/10/16 07:15:59;;;;;;;4.72;3.28;;;;;;;4.96;nan;99926.31;4931438;28;20684;-75
2023/10/16 07:18:26;;;;;;;3.60;3.17;;;;;;;5.03;nan;99932.19;4915073;28;20335;-76
2023/10/16 07:20:55;;;;;;;6.60;3.15;;;;;;;5.10;nan;99921.50;4930890;28;20613;-76
2023/10/16 07:23:24;;;;;;;4.03;3.25;;;;;;;5.20;nan;99921.16;4929578;28;20207;-77
2023/10/16 07:25:56;;;;;;;3.80;2.90;;;;;;;5.29;nan;99928.63;4932430;28;20284;-76
2023/10/16 07:28:22;;;;;;;4.70;3.35;;;;;;;5.38;nan;99917.03;4937904;28;20717;-76
2023/10/16 07:30:48;;;;;;;2.28;2.08;;;;;;;5.46;nan;99928.00;4940610;28;20288;-76
2023/10/16 07:33:17;;;;;;;3.83;3.38;;;;;;;5.49;nan;99918.31;4936259;28;20221;-76
2023/10/16 07:35:45;;;;;;;5.20;3.08;;;;;;;5.58;nan;99913.66;4936502;28;20074;-76
2023/10/16 07:38:22;;;;;;;4.90;2.92;;;;;;;5.62;nan;99917.88;4936921;28;20225;-76
2023/10/16 07:40:54;;;;;;;4.80;3.05;;;;;;;5.71;nan;99910.53;4936627;28;20427;-76
2023/10/16 07:43:28;;;;;;;5.80;4.20;;;;;;;5.80;nan;99909.31;4938044;28;20709;-76
2023/10/16 07:48:37;;;;;;;7.47;3.95;;;;;;;6.00;nan;99905.13;4941125;28;20205;-78
2023/10/16 07:51:06;;;;;;;6.75;3.45;;;;;;;6.11;nan;99911.59;4936234;28;20495;-77
2023/10/16 07:53:36;;;;;;;4.55;2.85;;;;;;;6.25;nan;99902.34;4938078;28;20212;-77
2023/10/16 07:56:02;;;;;;;4.03;3.20;;;;;;;6.37;nan;99905.31;4937229;28;20197;-77
2023/10/16 07:58:34;;;;;;;5.85;3.05;;;;;;;6.49;nan;99903.09;4936511;28;20235;-76
2023/10/16 08:03:41;;;;;;;4.65;2.80;;;;;;;6.68;nan;99905.78;4935259;28;20231;-76
2023/10/16 08:06:12;;;;;;;4.70;3.90;;;;;;;6.77;nan;99908.81;4933484;28;20462;-76
2023/10/16 08:08:38;;;;;;;3.63;2.75;;;;;;;6.94;nan;99907.25;4948657;23;20228;-80
2023/10/16 08:11:14;;;;;;;7.20;2.92;;;;;;;7.52;nan;99910.69;4917842;28;20721;-78
2023/10/16 08:13:49;;;;;;;4.03;3.38;;;;;;;8.38;nan;99900.50;4931532;28;20208;-78
2023/10/16 08:16:21;;;;;;;3.45;2.90;;;;;;;9.33;nan;99902.63;4934419;28;20193;-78
2023/10/16 08:18:51;;;;;;;5.95;2.15;;;;;;;10.29;nan;99899.91;4941851;28;20379;-79
2023/10/16 08:21:24;;;;;;;4.18;2.65;;;;;;;11.17;nan;99892.06;4949080;28;20258;-80
2023/10/16 08:23:53;;;;;;;3.45;2.08;;;;;;;12.21;nan;99895.97;4949959;28;20204;-79
2023/10/16 08:26:28;;;;;;;2.40;2.20;;;;;;;13.02;nan;99889.66;4950731;28;20271;-78
2023/10/16 08:29:11;;;;;;;2.53;2.28;;;;;;;13.75;nan;99894.19;4955606;28;20548;-79
2023/10/16 08:34:47;;;;;;;2.60;2.40;;;;;;;15.21;nan;99889.38;4952924;28;20543;-79
2023/10/16 08:37:13;;;;;;;4.47;2.50;;;;;;;15.64;nan;99885.97;4947094;28;20767;-79
2023/10/16 08:39:47;;;;;;;4.65;2.30;;;;;;;16.24;nan;99882.94;4951218;28;21277;-79
2023/10/16 08:44:45;;;;;;;2.40;2.20;;;;;;;17.13;nan;99875.41;4953209;28;20806;-80
2023/10/16 08:47:16;;;;;;;4.93;2.83;;;;;;;17.39;nan;99868.69;4952921;28;20210;-79
2023/10/16 08:49:53;;;;;;;2.67;2.17;;;;;;;17.47;nan;99871.50;4948558;28;20497;-79
2023/10/16 08:52:21;;;;;;;2.50;2.10;;;;;;;17.76;nan;99864.56;4952649;28;20661;-79
2023/10/16 08:57:27;;;;;;;2.40;2.20;;;;;;;18.22;nan;99849.78;4949148;28;20555;-80
2023/10/16 08:59:57;;;;;;;2.25;2.05;;;;;;;18.28;nan;99847.41;4950179;28;20299;-79
2023/10/16 09:02:25;;;;;;;5.85;2.90;;;;;;;18.40;nan;99853.41;4953427;28;20204;-79
2023/10/16 09:04:54;;;;;;;3.40;2.33;;;;;;;18.52;nan;99838.13;4949982;28;20207;-79
2023/10/16 09:07:20;;;;;;;3.08;2.60;;;;;;;18.54;nan;99838.84;4950041;28;20633;-80
2023/10/16 09:09:49;;;;;;;2.80;2.50;;;;;;;18.25;nan;99841.53;4953396;28;20664;-80
2023/10/16 09:12:24;;;;;;;4.20;3.00;;;;;;;17.91;nan;99845.44;4952950;28;20227;-79
2023/10/16 09:14:50;;;;;;;2.10;1.90;;;;;;;17.46;nan;99842.41;4950749;28;20211;-79
2023/10/16 09:17:19;;;;;;;2.70;2.05;;;;;;;17.14;nan;99837.28;4951954;28;20205;-79
2023/10/16 09:19:48;;;;;;;2.25;2.05;;;;;;;16.91;nan;99840.13;4950870;28;20216;-79
2023/10/16 09:22:15;;;;;;;3.45;2.20;;;;;;;16.69;nan;99834.94;4953459;28;20674;-79
2023/10/16 09:24:44;;;;;;;2.60;2.10;;;;;;;16.36;nan;99835.03;4957939;28;20619;-79
2023/10/16 09:27:30;;;;;;;2.35;2.15;;;;;;;15.98;nan;99834.72;4956646;28;20719;-79
2023/10/16 09:29:58;;;;;;;5.00;2.35;;;;;;;15.56;nan;99824.84;4958845;28;20295;-77
2023/10/16 09:32:36;;;;;;;4.28;2.15;;;;;;;15.11;nan;99832.84;4959559;28;20227;-78
2023/10/16 09:35:06;;;;;;;2.83;1.95;;;;;;;14.77;nan;99837.28;4954695;28;20199;-78
2023/10/16 09:37:34;;;;;;;5.68;1.67;;;;;;;14.45;nan;99827.34;4956148;28;20797;-78
2023/10/16 09:40:35;;;;;;;5.15;2.22;;;;;;;14.26;nan;99835.00;4956316;28;20212;-78
2023/10/16 09:43:12;;;;;;;2.60;1.90;;;;;;;14.04;nan;99830.47;4956509;28;20563;-76
2023/10/16 09:45:38;;;;;;;1.70;1.52;;;;;;;13.84;nan;99827.50;4957338;28;20203;-76
2023/10/16 09:48:19;;;;;;;4.23;2.00;;;;;;;13.64;nan;99825.50;4956360;28;20266;-75
2023/10/16 09:50:45;;;;;;;1.80;1.70;;;;;;;13.50;nan;99816.78;4954678;28;20473;-75
2023/10/16 09:53:11;;;;;;;2.85;1.90;;;;;;;13.43;nan;99814.69;4955212;28;20204;-75
2023/10/16 09:55:44;;;;;;;3.10;2.07;;;;;;;13.36;nan;99814.28;4958210;28;20214;-76
2023/10/16 09:58:11;;;;;;;2.72;1.48;;;;;;;13.40;nan;99812.28;4960024;28;20683;-76
2023/10/16 10:00:46;;;;;;;1.83;1.70;;;;;;;13.50;nan;99819.41;4958164;28;20294;-75
2023/10/16 10:03:14;;;;;;;4.65;2.22;;;;;;;13.55;nan;99805.88;4950776;28;20444;-75
2023/10/16 10:08:52;;;;;;;4.22;1.52;;;;;;;13.65;nan;99814.81;4951455;28;20231;-76
2023/10/16 10:11:37;;;;;;;5.78;1.90;;;;;;;13.72;nan;99810.78;4947052;28;20220;-77
2023/10/16 10:14:11;;;;;;;3.35;1.70;;;;;;;13.80;nan;99799.66;4953153;28;20200;-75
2023/10/16 10:16:46;;;;;;;2.78;1.65;;;;;;;13.88;nan;99799.94;4955110;28;20537;-76
2023/10/16 10:19:39;;;;;;;3.03;1.90;;;;;;;13.98;nan;99799.22;4953184;28;20556;-75
2023/10/16 10:22:16;;;;;;;1.77;1.55;;;;;;;14.07;nan;99798.53;4953373;28;20286;-75
2023/10/16 10:24:50;;;;;;;3.70;1.48;;;;;;;14.16;nan;99792.56;4949063;28;20195;-76
2023/10/16 10:27:16;;;;;;;5.72;2.00;;;;;;;14.23;nan;99785.88;4951963;28;20197;-75
2023/10/16 10:29:48;;;;;;;2.60;1.80;;;;;;;14.27;nan;99786.47;4953153;28;20755;-76
2023/10/16 10:32:14;;;;;;;1.98;1.65;;;;;;;14.29;nan;99782.75;4952578;28;20904;-77
2023/10/16 10:34:42;;;;;;;2.80;1.40;;;;;;;14.33;nan;99784.19;4938259;28;20238;-76
2023/10/16 10:37:44;;;;;;;2.90;1.80;;;;;;;14.45;nan;99786.88;4943530;28;20459;-77
2023/10/16 10:40:15;;;;;;;5.43;1.70;;;;;;;14.51;nan;99779.31;4956455;28;20386;-77
2023/10/16 10:42:41;;;;;;;1.67;1.40;;;;;;;14.54;nan;99772.97;4951330;28;20224;-76
2023/10/16 10:45:29;;;;;;;2.90;1.40;;;;;;;14.52;nan;99772.22;4949278;28;20204;-76
2023/10/16 10:47:55;;;;;;;3.70;2.25;;;;;;;14.48;nan;99760.22;4950896;28;20208;-78
2023/10/16 10:50:21;;;;;;;3.10;1.60;;;;;;;14.45;nan;99761.28;4950053;28;20208;-76
2023/10/16 10:52:47;;;;;;;3.40;1.50;;;;;;;14.47;nan;99767.28;4953800;28;20205;-75
2023/10/16 10:55:18;;;;;;;2.57;1.10;;;;;;;14.45;nan;99760.44;4955302;28;20197;-76
2023/10/16 10:57:48;;;;;;;4.35;1.83;;;;;;;14.45;nan;99745.44;4953102;28;20295;-75
2023/10/16 11:03:08;;;;;;;2.72;1.70;;;;;;;14.45;nan;99741.94;4948071;28;20195;-76
2023/10/16 11:05:34;;;;;;;2.03;1.50;;;;;;;14.48;nan;99739.06;4952872;28;20207;-76
2023/10/16 11:10:41;;;;;;;2.22;1.65;;;;;;;14.46;nan;99725.94;4947631;28;20326;-76
2023/10/16 11:13:11;;;;;;;1.20;1.05;;;;;;;14.47;nan;99722.34;4938123;28;20208;-77
2023/10/16 11:15:45;;;;;;;1.85;1.40;;;;;;;14.51;nan;99709.75;4953845;28;20286;-77
2023/10/16 11:18:11;;;;;;;2.47;1.10;;;;;;;14.57;nan;99701.34;4951923;28;20200;-76
2023/10/16 11:20:38;;;;;;;2.55;1.40;;;;;;;14.59;nan;99691.50;4956460;28;20204;-76
2023/10/16 11:23:13;;;;;;;2.53;1.65;;;;;;;14.57;nan;99688.13;4945420;28;20204;-76
2023/10/16 11:25:44;;;;;;;1.60;1.35;;;;;;;14.59;nan;99686.22;4952632;28;20266;-77
2023/10/16 11:28:17;;;;;;;1.70;1.58;;;;;;;14.59;nan;99681.78;4955550;28;20209;-76
2023/10/16 11:30:44;;;;;;;1.98;1.10;;;;;;;14.59;nan;99670.38;4952106;28;20981;-76
2023/10/16 11:33:09;;;;;;;1.50;1.40;;;;;;;14.67;nan;99669.75;4947797;28;20242;-76
2023/10/16 11:35:35;;;;;;;1.30;1.20;;;;;;;14.71;nan;99664.09;4953030;28;20211;-77
2023/10/16 11:38:19;;;;;;;24.57;2.20;;;;;;;14.72;nan;99657.84;4953037;28;20246;-77
2023/10/16 11:40:47;;;;;;;3.33;1.35;;;;;;;14.71;nan;99655.31;4950384;28;21173;-77
2023/10/16 11:43:14;;;;;;;3.08;1.38;;;;;;;14.74;nan;99653.28;4954939;28;20205;-77
2023/10/16 11:45:39;;;;;;;1.67;1.15;;;;;;;14.76;nan;99646.06;4950783;28;20209;-77
2023/10/16 11:53:40;;;;;;;2.35;1.65;;;;;;;14.81;nan;99641.22;4954048;28;20204;-76
2023/10/16 11:56:09;;;;;;;1.80;1.55;;;;;;;14.84;nan;99632.22;4949560;28;20839;-77
2023/10/16 11:58:36;;;;;;;2.22;1.23;;;;;;;14.94;nan;99627.88;4947144;28;20762;-76
2023/10/16 12:01:11;;;;;;;1.55;1.45;;;;;;;14.95;nan;99624.25;4952033;28;20235;-77
2023/10/16 12:03:37;;;;;;;2.08;1.38;;;;;;;14.97;nan;99616.19;4954322;28;20749;-76
2023/10/16 12:06:15;;;;;;;1.73;1.63;;;;;;;14.99;nan;99608.97;4955789;28;20204;-77
2023/10/16 12:08:44;;;;;;;2.30;1.40;;;;;;;15.05;nan;99611.13;4950410;28;20252;-77
2023/10/16 12:11:14;;;;;;;1.63;1.20;;;;;;;15.13;nan;99608.69;4955582;28;20217;-77
2023/10/16 12:13:43;;;;;;;3.03;1.73;;;;;;;15.21;nan;99595.66;4953984;28;20226;-77
2023/10/16 12:16:09;;;;;;;1.25;1.13;;;;;;;15.23;nan;99587.59;4944863;28;20209;-76
2023/10/16 12:18:34;;;;;;;1.75;1.20;;;;;;;15.29;nan;99591.53;4947736;28;21186;-77
2023/10/16 12:21:06;;;;;;;2.77;1.97;;;;;;;15.32;nan;99580.69;4955483;28;20914;-78
2023/10/16 12:23:36;;;;;;;1.92;1.55;;;;;;;15.36;nan;99577.63;4953405;28;20212;-77
2023/10/16 12:26:05;;;;;;;1.90;1.20;;;;;;;15.43;nan;99575.34;4948601;28;20207;-77
2023/10/16 12:28:34;;;;;;;1.42;0.93;;;;;;;15.49;nan;99564.22;4948231;28;20543;-77
2023/10/16 12:31:02;;;;;;;5.90;1.40;;;;;;;15.50;nan;99560.63;4952035;28;20307;-77
2023/10/16 12:33:30;;;;;;;1.38;1.20;;;;;;;15.56;nan;99551.31;4954113;28;20214;-78
2023/10/16 12:35:56;;;;;;;1.88;1.02;;;;;;;15.50;nan;99550.03;4950466;28;20204;-78
2023/10/16 12:38:23;;;;;;;1.30;1.10;;;;;;;15.58;nan;99546.69;4952136;28;20207;-77
2023/10/16 12:40:58;;;;;;;3.25;1.88;;;;;;;15.62;nan;99546.31;4933138;28;20452;-78
2023/10/16 12:43:27;;;;;;;1.30;1.10;;;;;;;15.66;nan;99541.59;4953957;28;20569;-77
2023/10/16 12:45:54;;;;;;;2.40;1.20;;;;;;;15.65;nan;99542.56;4941905;28;20207;-77
2023/10/16 12:48:21;;;;;;;4.32;1.38;;;;;;;15.67;nan;99541.47;4955083;28;20778;-77
2023/10/16 12:50:47;;;;;;;3.53;1.67;;;;;;;15.66;nan;99542.44;4948649;28;20699;-77
2023/10/16 12:53:14;;;;;;;1.50;1.40;;;;;;;15.66;nan;99528.34;4948016;28;20563;-78
2023/10/16 12:55:41;;;;;;;4.03;1.10;;;;;;;15.67;nan;99530.03;4943249;28;20204;-76
2023/10/16 12:58:10;;;;;;;1.90;1.50;;;;;;;15.69;nan;99518.38;4945986;28;20347;-78
2023/10/16 13:00:39;;;;;;;3.15;1.30;;;;;;;15.68;nan;99515.81;4945052;28;20213;-77
2023/10/16 13:03:13;;;;;;;2.13;1.33;;;;;;;15.68;nan;99511.41;4941004;28;20211;-77
2023/10/16 13:05:40;;;;;;;1.92;1.30;;;;;;;15.67;nan;99504.41;4942659;28;20215;-77
2023/10/16 13:08:07;;;;;;;2.33;1.40;;;;;;;15.67;nan;99504.41;4937853;28;20259;-77
2023/10/16 13:10:33;;;;;;;3.13;1.20;;;;;;;15.68;nan;99508.75;4948025;28;20248;-77
2023/10/16 13:13:00;;;;;;;3.70;1.20;;;;;;;15.66;nan;99502.72;4951450;28;20635;-76
2023/10/16 13:15:29;;;;;;;1.40;1.23;;;;;;;15.69;nan;99499.03;4953474;28;20466;-76
2023/10/16 13:17:55;;;;;;;1.65;1.17;;;;;;;15.73;nan;99504.88;4950578;28;20579;-76
2023/10/16 13:20:20;;;;;;;1.85;1.75;;;;;;;15.74;nan;99498.59;4949159;28;20228;-75
2023/10/16 13:22:49;;;;;;;1.97;1.23;;;;;;;15.77;nan;99496.53;4950934;28;20619;-76
2023/10/16 13:25:18;;;;;;;1.67;1.58;;;;;;;15.81;nan;99494.44;4949817;28;20205;-76
2023/10/16 13:27:44;;;;;;;1.15;1.05;;;;;;;15.83;nan;99497.81;4951132;28;20204;-75
2023/10/16 13:30:16;;;;;;;1.87;1.20;;;;;;;15.83;nan;99479.28;4951968;28;20215;-76
2023/10/16 13:32:48;;;;;;;1.42;1.00;;;;;;;15.82;nan;99482.88;4953408;28;20993;-75
2023/10/16 13:38:26;;;;;;;3.30;1.13;;;;;;;15.79;nan;99470.75;4954207;28;20289;-76
2023/10/16 13:40:53;;;;;;;2.80;1.40;;;;;;;15.78;nan;99482.31;4954560;28;20771;-74
2023/10/16 13:43:19;;;;;;;1.85;1.20;;;;;;;15.76;nan;99489.53;4949128;28;20226;-75
2023/10/16 13:45:44;;;;;;;2.90;1.17;;;;;;;15.77;nan;99475.34;4947874;28;20227;-76
2023/10/16 13:48:10;;;;;;;1.13;1.07;;;;;;;15.80;nan;99488.31;4950073;28;20207;-76
2023/10/16 13:50:35;;;;;;;1.20;1.03;;;;;;;15.81;nan;99468.81;4951881;28;20671;-76
2023/10/16 13:53:04;;;;;;;2.10;1.10;;;;;;;15.75;nan;99466.69;4949118;28;20238;-76
2023/10/16 13:55:30;;;;;;;2.17;1.10;;;;;;;15.75;nan;99468.50;4950013;28;20204;-75
2023/10/16 13:57:56;;;;;;;2.60;1.17;;;;;;;15.79;nan;99468.09;4948753;28;20291;-75
2023/10/16 14:00:28;;;;;;;2.80;1.50;;;;;;;15.76;nan;99465.72;4949111;28;20733;-75
2023/10/16 14:02:55;;;;;;;1.80;1.17;;;;;;;15.80;nan;99461.84;4938091;28;20213;-75
2023/10/16 14:05:21;;;;;;;4.82;1.70;;;;;;;15.80;nan;99461.84;4952151;28;20208;-76
2023/10/16 14:07:46;;;;;;;1.30;1.20;;;;;;;15.80;nan;99458.34;4947795;28;20253;-75
2023/10/16 14:10:13;;;;;;;1.43;1.30;;;;;;;15.80;nan;99451.25;4991368;23;20232;-73
2023/10/16 14:12:39;;;;;;;2.05;1.40;;;;;;;15.80;nan;99445.13;4921772;28;20324;-73